sensor_id;sensor_type;location;lat;lon;timestamp;P1;durP1;ratioP1;P2;durP2;ratioP2
4309;SDS011;2168;53.576;9.980;2023-03-31T00:01:23;21.60;;;7.10;;
4309;SDS011;2168;53.576;9.980;2023-03-31T00:03:48;22.37;;;6.60;;
4309;SDS011;2168;53.576;9.980;2023-03-31T00:06:13;36.33;;;7.67;;
4309;SDS011;2168;53.576;9.980;2023-03-31T00:08:42;23.13;;;6.53;;
4309;SDS011;2168;53.576;9.980;2023-03-31T00:11:07;29.67;;;7.03;;
4309;SDS011;2168;53.576;9.980;2023-03-31T00:13:32;26.50;;;6.70;;
4309;SDS011;2168;53.576;9.980;2023-03-31T00:16:00;26.03;;;7.20;;
4309;SDS011;2168;53.576;9.980;2023-03-31T00:18:25;18.50;;;5.80;;
4309;SDS011;2168;53.576;9.980;2023-03-31T00:20:51;24.67;;;6.80;;
4309;SDS011;2168;53.576;9.980;2023-03-31T00:23:17;23.77;;;6.17;;
4309;SDS011;2168;53.576;9.980;2023-03-31T00:25:43;26.00;;;5.50;;
4309;SDS011;2168;53.576;9.980;2023-03-31T00:28:08;23.13;;;5.73;;
4309;SDS011;2168;53.576;9.980;2023-03-31T00:30:33;18.97;;;6.00;;
4309;SDS011;2168;53.576;9.980;2023-03-31T00:32:58;22.67;;;6.23;;
4309;SDS011;2168;53.576;9.980;2023-03-31T00:35:24;18.67;;;5.43;;
4309;SDS011;2168;53.576;9.980;2023-03-31T00:37:49;17.90;;;5.30;;
4309;SDS011;2168;53.576;9.980;2023-03-31T00:40:15;17.90;;;5.50;;
4309;SDS011;2168;53.576;9.980;2023-03-31T00:42:40;30.23;;;5.73;;
4309;SDS011;2168;53.576;9.980;2023-03-31T00:45:27;20.23;;;6.23;;
4309;SDS011;2168;53.576;9.980;2023-03-31T00:50:24;23.70;;;6.13;;
4309;SDS011;2168;53.576;9.980;2023-03-31T00:53:03;17.17;;;5.53;;
4309;SDS011;2168;53.576;9.980;2023-03-31T00:55:34;17.30;;;5.77;;
4309;SDS011;2168;53.576;9.980;2023-03-31T00:58:00;16.37;;;5.13;;
4309;SDS011;2168;53.576;9.980;2023-03-31T01:00:26;18.63;;;4.90;;
4309;SDS011;2168;53.576;9.980;2023-03-31T01:02:53;24.40;;;6.60;;
4309;SDS011;2168;53.576;9.980;2023-03-31T01:05:28;19.43;;;6.00;;
4309;SDS011;2168;53.576;9.980;2023-03-31T01:07:55;13.80;;;5.83;;
4309;SDS011;2168;53.576;9.980;2023-03-31T01:10:21;26.57;;;6.63;;
4309;SDS011;2168;53.576;9.980;2023-03-31T01:12:48;21.07;;;6.10;;
4309;SDS011;2168;53.576;9.980;2023-03-31T01:15:13;21.57;;;6.60;;
4309;SDS011;2168;53.576;9.980;2023-03-31T01:17:39;19.17;;;5.83;;
4309;SDS011;2168;53.576;9.980;2023-03-31T01:30:51;23.03;;;5.77;;
4309;SDS011;2168;53.576;9.980;2023-03-31T01:36:03;22.27;;;6.10;;
4309;SDS011;2168;53.576;9.980;2023-03-31T01:41:27;23.83;;;6.20;;
4309;SDS011;2168;53.576;9.980;2023-03-31T01:52:07;25.63;;;5.90;;
4309;SDS011;2168;53.576;9.980;2023-03-31T01:56:38;27.17;;;6.77;;
4309;SDS011;2168;53.576;9.980;2023-03-31T01:59:12;18.77;;;5.93;;
4309;SDS011;2168;53.576;9.980;2023-03-31T02:04:07;18.50;;;5.00;;
4309;SDS011;2168;53.576;9.980;2023-03-31T02:06:35;20.83;;;5.50;;
4309;SDS011;2168;53.576;9.980;2023-03-31T02:09:14;12.57;;;4.50;;
4309;SDS011;2168;53.576;9.980;2023-03-31T02:12:03;18.47;;;6.20;;
4309;SDS011;2168;53.576;9.980;2023-03-31T02:14:30;15.43;;;5.20;;
4309;SDS011;2168;53.576;9.980;2023-03-31T02:16:56;15.23;;;4.90;;
4309;SDS011;2168;53.576;9.980;2023-03-31T02:19:24;15.20;;;5.00;;
4309;SDS011;2168;53.576;9.980;2023-03-31T02:21:50;13.67;;;5.33;;
4309;SDS011;2168;53.576;9.980;2023-03-31T02:24:16;13.60;;;5.30;;
4309;SDS011;2168;53.576;9.980;2023-03-31T02:26:51;13.37;;;5.20;;
4309;SDS011;2168;53.576;9.980;2023-03-31T02:29:18;16.23;;;5.37;;
4309;SDS011;2168;53.576;9.980;2023-03-31T02:32:27;18.37;;;5.10;;
4309;SDS011;2168;53.576;9.980;2023-03-31T02:34:32;17.70;;;5.40;;
4309;SDS011;2168;53.576;9.980;2023-03-31T02:36:57;10.40;;;4.80;;
4309;SDS011;2168;53.576;9.980;2023-03-31T02:39:27;11.53;;;5.27;;
4309;SDS011;2168;53.576;9.980;2023-03-31T02:41:53;14.40;;;5.53;;
4309;SDS011;2168;53.576;9.980;2023-03-31T02:44:19;21.20;;;5.00;;
4309;SDS011;2168;53.576;9.980;2023-03-31T02:46:44;20.30;;;5.23;;
4309;SDS011;2168;53.576;9.980;2023-03-31T02:49:10;18.13;;;5.20;;
4309;SDS011;2168;53.576;9.980;2023-03-31T02:51:58;11.10;;;5.20;;
4309;SDS011;2168;53.576;9.980;2023-03-31T02:57:27;17.53;;;5.60;;
4309;SDS011;2168;53.576;9.980;2023-03-31T03:02:47;15.17;;;5.27;;
4309;SDS011;2168;53.576;9.980;2023-03-31T03:07:54;12.73;;;5.37;;
4309;SDS011;2168;53.576;9.980;2023-03-31T03:15:45;19.03;;;5.10;;
4309;SDS011;2168;53.576;9.980;2023-03-31T03:18:12;14.93;;;5.70;;
4309;SDS011;2168;53.576;9.980;2023-03-31T03:20:38;17.13;;;5.73;;
4309;SDS011;2168;53.576;9.980;2023-03-31T03:23:05;11.40;;;5.63;;
4309;SDS011;2168;53.576;9.980;2023-03-31T03:25:30;15.57;;;6.00;;
4309;SDS011;2168;53.576;9.980;2023-03-31T03:27:55;18.00;;;5.23;;
4309;SDS011;2168;53.576;9.980;2023-03-31T03:30:21;13.90;;;6.00;;
4309;SDS011;2168;53.576;9.980;2023-03-31T03:32:46;15.80;;;6.10;;
4309;SDS011;2168;53.576;9.980;2023-03-31T03:35:11;13.60;;;5.50;;
4309;SDS011;2168;53.576;9.980;2023-03-31T03:37:37;13.37;;;6.37;;
4309;SDS011;2168;53.576;9.980;2023-03-31T03:40:02;16.40;;;5.80;;
4309;SDS011;2168;53.576;9.980;2023-03-31T03:42:29;16.80;;;5.83;;
4309;SDS011;2168;53.576;9.980;2023-03-31T03:44:55;17.63;;;5.70;;
4309;SDS011;2168;53.576;9.980;2023-03-31T03:47:20;17.30;;;6.10;;
4309;SDS011;2168;53.576;9.980;2023-03-31T03:49:45;15.33;;;6.07;;
4309;SDS011;2168;53.576;9.980;2023-03-31T03:52:13;14.80;;;6.10;;
4309;SDS011;2168;53.576;9.980;2023-03-31T03:54:38;15.57;;;6.10;;
4309;SDS011;2168;53.576;9.980;2023-03-31T03:57:03;16.20;;;7.00;;
4309;SDS011;2168;53.576;9.980;2023-03-31T03:59:28;15.40;;;6.30;;
4309;SDS011;2168;53.576;9.980;2023-03-31T04:01:53;15.33;;;5.70;;
4309;SDS011;2168;53.576;9.980;2023-03-31T04:04:19;16.60;;;6.03;;
4309;SDS011;2168;53.576;9.980;2023-03-31T04:06:44;18.53;;;6.40;;
4309;SDS011;2168;53.576;9.980;2023-03-31T04:09:09;12.97;;;6.10;;
4309;SDS011;2168;53.576;9.980;2023-03-31T04:11:35;17.00;;;5.90;;
4309;SDS011;2168;53.576;9.980;2023-03-31T04:14:00;12.83;;;5.83;;
4309;SDS011;2168;53.576;9.980;2023-03-31T04:16:25;17.73;;;6.03;;
4309;SDS011;2168;53.576;9.980;2023-03-31T04:18:51;7.77;;;5.77;;
4309;SDS011;2168;53.576;9.980;2023-03-31T04:21:17;11.23;;;5.30;;
4309;SDS011;2168;53.576;9.980;2023-03-31T04:23:52;19.67;;;7.30;;
4309;SDS011;2168;53.576;9.980;2023-03-31T04:26:26;14.63;;;7.07;;
4309;SDS011;2168;53.576;9.980;2023-03-31T04:28:55;17.20;;;5.83;;
4309;SDS011;2168;53.576;9.980;2023-03-31T04:31:22;11.53;;;6.23;;
4309;SDS011;2168;53.576;9.980;2023-03-31T04:33:53;12.27;;;6.17;;
4309;SDS011;2168;53.576;9.980;2023-03-31T04:36:20;16.10;;;6.80;;
4309;SDS011;2168;53.576;9.980;2023-03-31T04:38:49;18.80;;;7.90;;
4309;SDS011;2168;53.576;9.980;2023-03-31T04:41:17;14.10;;;6.93;;
4309;SDS011;2168;53.576;9.980;2023-03-31T04:43:42;18.03;;;7.37;;
4309;SDS011;2168;53.576;9.980;2023-03-31T04:46:08;14.90;;;6.50;;
4309;SDS011;2168;53.576;9.980;2023-03-31T04:48:33;16.97;;;7.43;;
4309;SDS011;2168;53.576;9.980;2023-03-31T04:50:58;15.70;;;7.73;;
4309;SDS011;2168;53.576;9.980;2023-03-31T04:53:24;15.97;;;7.30;;
4309;SDS011;2168;53.576;9.980;2023-03-31T04:55:50;23.17;;;8.57;;
4309;SDS011;2168;53.576;9.980;2023-03-31T04:58:15;17.27;;;8.33;;
4309;SDS011;2168;53.576;9.980;2023-03-31T05:00:41;12.30;;;7.00;;
4309;SDS011;2168;53.576;9.980;2023-03-31T05:03:06;17.13;;;7.53;;
4309;SDS011;2168;53.576;9.980;2023-03-31T05:05:32;14.47;;;7.00;;
4309;SDS011;2168;53.576;9.980;2023-03-31T05:07:57;16.67;;;6.97;;
4309;SDS011;2168;53.576;9.980;2023-03-31T05:10:22;18.07;;;7.00;;
4309;SDS011;2168;53.576;9.980;2023-03-31T05:12:48;19.70;;;7.47;;
4309;SDS011;2168;53.576;9.980;2023-03-31T05:15:13;22.30;;;9.07;;
4309;SDS011;2168;53.576;9.980;2023-03-31T05:17:38;16.60;;;7.77;;
4309;SDS011;2168;53.576;9.980;2023-03-31T05:20:04;15.10;;;7.83;;
4309;SDS011;2168;53.576;9.980;2023-03-31T05:22:32;17.03;;;7.63;;
4309;SDS011;2168;53.576;9.980;2023-03-31T05:24:58;16.33;;;7.60;;
4309;SDS011;2168;53.576;9.980;2023-03-31T05:27:23;18.90;;;7.67;;
4309;SDS011;2168;53.576;9.980;2023-03-31T05:29:48;18.70;;;9.73;;
4309;SDS011;2168;53.576;9.980;2023-03-31T05:32:13;19.80;;;7.57;;
4309;SDS011;2168;53.576;9.980;2023-03-31T05:34:38;15.77;;;7.57;;
4309;SDS011;2168;53.576;9.980;2023-03-31T05:37:04;18.50;;;7.63;;
4309;SDS011;2168;53.576;9.980;2023-03-31T05:39:29;20.60;;;7.37;;
4309;SDS011;2168;53.576;9.980;2023-03-31T05:41:58;26.63;;;7.13;;
4309;SDS011;2168;53.576;9.980;2023-03-31T05:44:23;13.10;;;6.73;;
4309;SDS011;2168;53.576;9.980;2023-03-31T05:46:48;14.10;;;7.20;;
4309;SDS011;2168;53.576;9.980;2023-03-31T05:49:13;17.57;;;7.10;;
4309;SDS011;2168;53.576;9.980;2023-03-31T05:51:40;18.63;;;7.60;;
4309;SDS011;2168;53.576;9.980;2023-03-31T05:54:06;17.27;;;6.77;;
4309;SDS011;2168;53.576;9.980;2023-03-31T05:56:31;21.77;;;6.93;;
4309;SDS011;2168;53.576;9.980;2023-03-31T05:58:58;21.20;;;7.70;;
4309;SDS011;2168;53.576;9.980;2023-03-31T06:01:23;15.30;;;7.60;;
4309;SDS011;2168;53.576;9.980;2023-03-31T06:03:48;12.50;;;6.00;;
4309;SDS011;2168;53.576;9.980;2023-03-31T06:06:14;16.60;;;7.13;;
4309;SDS011;2168;53.576;9.980;2023-03-31T06:08:44;16.10;;;6.73;;
4309;SDS011;2168;53.576;9.980;2023-03-31T06:11:10;23.00;;;8.47;;
4309;SDS011;2168;53.576;9.980;2023-03-31T06:13:36;14.03;;;7.33;;
4309;SDS011;2168;53.576;9.980;2023-03-31T06:16:02;22.80;;;6.73;;
4309;SDS011;2168;53.576;9.980;2023-03-31T06:18:28;16.13;;;6.47;;
4309;SDS011;2168;53.576;9.980;2023-03-31T06:20:53;16.97;;;7.07;;
4309;SDS011;2168;53.576;9.980;2023-03-31T06:23:19;10.03;;;5.63;;
4309;SDS011;2168;53.576;9.980;2023-03-31T06:25:44;15.57;;;6.77;;
4309;SDS011;2168;53.576;9.980;2023-03-31T06:28:10;27.07;;;7.10;;
4309;SDS011;2168;53.576;9.980;2023-03-31T06:30:35;13.10;;;6.60;;
4309;SDS011;2168;53.576;9.980;2023-03-31T06:33:00;16.70;;;6.00;;
4309;SDS011;2168;53.576;9.980;2023-03-31T06:35:26;13.63;;;6.17;;
4309;SDS011;2168;53.576;9.980;2023-03-31T06:37:51;13.00;;;6.30;;
4309;SDS011;2168;53.576;9.980;2023-03-31T06:40:16;12.53;;;5.93;;
4309;SDS011;2168;53.576;9.980;2023-03-31T06:42:42;15.10;;;6.53;;
4309;SDS011;2168;53.576;9.980;2023-03-31T06:45:07;14.30;;;6.03;;
4309;SDS011;2168;53.576;9.980;2023-03-31T06:47:32;11.00;;;5.43;;
4309;SDS011;2168;53.576;9.980;2023-03-31T06:49:58;16.80;;;6.10;;
4309;SDS011;2168;53.576;9.980;2023-03-31T06:52:23;9.87;;;5.33;;
4309;SDS011;2168;53.576;9.980;2023-03-31T06:54:48;17.93;;;6.30;;
4309;SDS011;2168;53.576;9.980;2023-03-31T06:57:13;16.73;;;5.60;;
4309;SDS011;2168;53.576;9.980;2023-03-31T06:59:38;10.70;;;5.60;;
4309;SDS011;2168;53.576;9.980;2023-03-31T07:02:04;17.03;;;6.50;;
4309;SDS011;2168;53.576;9.980;2023-03-31T07:04:29;16.73;;;5.57;;
4309;SDS011;2168;53.576;9.980;2023-03-31T07:06:54;9.70;;;5.30;;
4309;SDS011;2168;53.576;9.980;2023-03-31T07:09:19;16.67;;;5.53;;
4309;SDS011;2168;53.576;9.980;2023-03-31T07:11:47;11.93;;;5.70;;
4309;SDS011;2168;53.576;9.980;2023-03-31T07:14:12;12.23;;;5.00;;
4309;SDS011;2168;53.576;9.980;2023-03-31T07:16:37;19.60;;;6.13;;
4309;SDS011;2168;53.576;9.980;2023-03-31T07:19:03;13.73;;;5.90;;
4309;SDS011;2168;53.576;9.980;2023-03-31T07:21:29;11.80;;;5.30;;
4309;SDS011;2168;53.576;9.980;2023-03-31T07:23:55;10.13;;;5.60;;
4309;SDS011;2168;53.576;9.980;2023-03-31T07:26:20;10.90;;;5.07;;
4309;SDS011;2168;53.576;9.980;2023-03-31T07:28:46;14.90;;;5.37;;
4309;SDS011;2168;53.576;9.980;2023-03-31T07:31:11;13.10;;;5.90;;
4309;SDS011;2168;53.576;9.980;2023-03-31T07:33:37;12.77;;;5.70;;
4309;SDS011;2168;53.576;9.980;2023-03-31T07:36:03;9.50;;;5.33;;
4309;SDS011;2168;53.576;9.980;2023-03-31T07:38:28;8.10;;;5.23;;
4309;SDS011;2168;53.576;9.980;2023-03-31T07:40:53;8.80;;;5.17;;
4309;SDS011;2168;53.576;9.980;2023-03-31T07:43:19;13.90;;;5.53;;
4309;SDS011;2168;53.576;9.980;2023-03-31T07:45:44;9.77;;;4.90;;
4309;SDS011;2168;53.576;9.980;2023-03-31T07:48:09;10.83;;;5.40;;
4309;SDS011;2168;53.576;9.980;2023-03-31T07:50:34;8.83;;;4.93;;
4309;SDS011;2168;53.576;9.980;2023-03-31T07:53:00;11.87;;;4.90;;
4309;SDS011;2168;53.576;9.980;2023-03-31T07:55:25;9.27;;;4.80;;
4309;SDS011;2168;53.576;9.980;2023-03-31T07:57:51;10.20;;;4.57;;
4309;SDS011;2168;53.576;9.980;2023-03-31T08:00:16;10.77;;;5.20;;
4309;SDS011;2168;53.576;9.980;2023-03-31T08:02:42;11.50;;;4.93;;
4309;SDS011;2168;53.576;9.980;2023-03-31T08:05:07;5.37;;;4.30;;
4309;SDS011;2168;53.576;9.980;2023-03-31T08:07:34;7.33;;;4.60;;
4309;SDS011;2168;53.576;9.980;2023-03-31T08:09:59;14.33;;;5.70;;
4309;SDS011;2168;53.576;9.980;2023-03-31T08:12:24;13.10;;;6.13;;
4309;SDS011;2168;53.576;9.980;2023-03-31T08:14:50;8.90;;;4.73;;
4309;SDS011;2168;53.576;9.980;2023-03-31T08:17:15;15.17;;;5.23;;
4309;SDS011;2168;53.576;9.980;2023-03-31T08:19:42;5.80;;;4.20;;
4309;SDS011;2168;53.576;9.980;2023-03-31T08:22:07;7.67;;;4.70;;
4309;SDS011;2168;53.576;9.980;2023-03-31T08:24:32;9.00;;;4.90;;
4309;SDS011;2168;53.576;9.980;2023-03-31T08:26:58;7.40;;;5.00;;
4309;SDS011;2168;53.576;9.980;2023-03-31T08:29:23;11.80;;;4.73;;
4309;SDS011;2168;53.576;9.980;2023-03-31T08:31:48;7.97;;;5.10;;
4309;SDS011;2168;53.576;9.980;2023-03-31T08:34:13;6.80;;;4.20;;
4309;SDS011;2168;53.576;9.980;2023-03-31T08:36:39;7.60;;;4.67;;
4309;SDS011;2168;53.576;9.980;2023-03-31T08:39:05;8.87;;;4.50;;
4309;SDS011;2168;53.576;9.980;2023-03-31T08:43:58;8.37;;;3.90;;
4309;SDS011;2168;53.576;9.980;2023-03-31T08:46:26;8.20;;;4.10;;
4309;SDS011;2168;53.576;9.980;2023-03-31T08:48:55;8.00;;;4.10;;
4309;SDS011;2168;53.576;9.980;2023-03-31T08:51:31;5.90;;;3.67;;
4309;SDS011;2168;53.576;9.980;2023-03-31T08:54:04;11.67;;;4.20;;
4309;SDS011;2168;53.576;9.980;2023-03-31T08:56:35;8.50;;;3.90;;
4309;SDS011;2168;53.576;9.980;2023-03-31T08:59:03;6.00;;;3.50;;
4309;SDS011;2168;53.576;9.980;2023-03-31T09:06:42;10.47;;;3.90;;
4309;SDS011;2168;53.576;9.980;2023-03-31T09:09:12;12.47;;;5.83;;
4309;SDS011;2168;53.576;9.980;2023-03-31T09:11:44;9.33;;;3.70;;
4309;SDS011;2168;53.576;9.980;2023-03-31T09:14:17;8.30;;;3.50;;
4309;SDS011;2168;53.576;9.980;2023-03-31T09:19:36;6.30;;;3.50;;
4309;SDS011;2168;53.576;9.980;2023-03-31T09:22:03;3.43;;;3.10;;
4309;SDS011;2168;53.576;9.980;2023-03-31T09:24:31;8.70;;;3.40;;
4309;SDS011;2168;53.576;9.980;2023-03-31T09:27:01;4.93;;;3.37;;
4309;SDS011;2168;53.576;9.980;2023-03-31T09:29:50;3.27;;;2.90;;
4309;SDS011;2168;53.576;9.980;2023-03-31T09:32:17;3.07;;;2.77;;
4309;SDS011;2168;53.576;9.980;2023-03-31T09:34:43;3.17;;;2.80;;
4309;SDS011;2168;53.576;9.980;2023-03-31T09:37:10;7.17;;;3.10;;
4309;SDS011;2168;53.576;9.980;2023-03-31T09:39:35;4.33;;;2.67;;
4309;SDS011;2168;53.576;9.980;2023-03-31T09:42:01;5.83;;;3.33;;
4309;SDS011;2168;53.576;9.980;2023-03-31T09:44:27;7.23;;;3.20;;
4309;SDS011;2168;53.576;9.980;2023-03-31T09:46:56;4.20;;;3.10;;
4309;SDS011;2168;53.576;9.980;2023-03-31T09:49:23;4.07;;;2.83;;
4309;SDS011;2168;53.576;9.980;2023-03-31T09:52:33;6.43;;;3.60;;
4309;SDS011;2168;53.576;9.980;2023-03-31T09:54:49;10.53;;;3.27;;
4309;SDS011;2168;53.576;9.980;2023-03-31T09:57:22;5.43;;;3.10;;
4309;SDS011;2168;53.576;9.980;2023-03-31T09:59:51;10.13;;;3.27;;
4309;SDS011;2168;53.576;9.980;2023-03-31T10:04:44;4.63;;;3.53;;
4309;SDS011;2168;53.576;9.980;2023-03-31T10:07:10;4.80;;;3.10;;
4309;SDS011;2168;53.576;9.980;2023-03-31T10:09:35;4.63;;;3.43;;
4309;SDS011;2168;53.576;9.980;2023-03-31T10:12:03;10.20;;;3.37;;
4309;SDS011;2168;53.576;9.980;2023-03-31T10:14:48;7.10;;;3.30;;
4309;SDS011;2168;53.576;9.980;2023-03-31T10:17:15;6.60;;;3.13;;
4309;SDS011;2168;53.576;9.980;2023-03-31T10:19:51;5.60;;;3.23;;
4309;SDS011;2168;53.576;9.980;2023-03-31T10:24:44;4.33;;;3.10;;
4309;SDS011;2168;53.576;9.980;2023-03-31T10:27:23;8.40;;;3.70;;
4309;SDS011;2168;53.576;9.980;2023-03-31T10:30:02;8.70;;;3.80;;
4309;SDS011;2168;53.576;9.980;2023-03-31T10:32:29;6.10;;;3.20;;
4309;SDS011;2168;53.576;9.980;2023-03-31T10:34:55;6.50;;;3.00;;
4309;SDS011;2168;53.576;9.980;2023-03-31T10:37:22;3.60;;;2.97;;
4309;SDS011;2168;53.576;9.980;2023-03-31T10:39:55;6.30;;;3.33;;
4309;SDS011;2168;53.576;9.980;2023-03-31T10:42:20;4.70;;;2.67;;
4309;SDS011;2168;53.576;9.980;2023-03-31T10:44:46;5.20;;;2.90;;
4309;SDS011;2168;53.576;9.980;2023-03-31T10:49:38;3.40;;;2.60;;
4309;SDS011;2168;53.576;9.980;2023-03-31T10:52:07;4.63;;;2.70;;
4309;SDS011;2168;53.576;9.980;2023-03-31T10:54:37;6.27;;;3.23;;
4309;SDS011;2168;53.576;9.980;2023-03-31T10:57:10;7.17;;;4.40;;
4309;SDS011;2168;53.576;9.980;2023-03-31T11:07:02;9.80;;;3.40;;
4309;SDS011;2168;53.576;9.980;2023-03-31T11:12:03;5.30;;;2.83;;
4309;SDS011;2168;53.576;9.980;2023-03-31T11:14:35;4.63;;;2.23;;
4309;SDS011;2168;53.576;9.980;2023-03-31T11:17:08;2.83;;;2.50;;
4309;SDS011;2168;53.576;9.980;2023-03-31T11:22:33;3.10;;;2.40;;
4309;SDS011;2168;53.576;9.980;2023-03-31T11:27:39;7.47;;;3.03;;
4309;SDS011;2168;53.576;9.980;2023-03-31T11:30:27;6.77;;;2.80;;
4309;SDS011;2168;53.576;9.980;2023-03-31T11:33:04;5.20;;;2.30;;
4309;SDS011;2168;53.576;9.980;2023-03-31T11:45:50;6.07;;;3.13;;
4309;SDS011;2168;53.576;9.980;2023-03-31T11:48:30;3.47;;;2.63;;
4309;SDS011;2168;53.576;9.980;2023-03-31T11:50:55;5.30;;;2.47;;
4309;SDS011;2168;53.576;9.980;2023-03-31T11:53:29;7.90;;;3.20;;
4309;SDS011;2168;53.576;9.980;2023-03-31T11:55:55;6.67;;;2.57;;
4309;SDS011;2168;53.576;9.980;2023-03-31T11:58:23;6.07;;;4.30;;
4309;SDS011;2168;53.576;9.980;2023-03-31T12:00:52;4.70;;;2.30;;
4309;SDS011;2168;53.576;9.980;2023-03-31T12:03:21;3.23;;;2.40;;
4309;SDS011;2168;53.576;9.980;2023-03-31T12:05:51;3.67;;;2.30;;
4309;SDS011;2168;53.576;9.980;2023-03-31T12:10:46;6.85;;;2.75;;
4309;SDS011;2168;53.576;9.980;2023-03-31T12:16:11;7.83;;;3.27;;
4309;SDS011;2168;53.576;9.980;2023-03-31T12:18:43;11.63;;;3.57;;
4309;SDS011;2168;53.576;9.980;2023-03-31T12:21:09;6.80;;;3.20;;
4309;SDS011;2168;53.576;9.980;2023-03-31T12:23:37;7.77;;;2.87;;
4309;SDS011;2168;53.576;9.980;2023-03-31T12:26:20;5.37;;;2.77;;
4309;SDS011;2168;53.576;9.980;2023-03-31T12:28:49;6.73;;;3.20;;
4309;SDS011;2168;53.576;9.980;2023-03-31T12:31:18;8.63;;;3.80;;
4309;SDS011;2168;53.576;9.980;2023-03-31T12:34:06;3.40;;;2.87;;
4309;SDS011;2168;53.576;9.980;2023-03-31T12:41:38;8.57;;;3.47;;
4309;SDS011;2168;53.576;9.980;2023-03-31T12:44:10;5.80;;;3.20;;
4309;SDS011;2168;53.576;9.980;2023-03-31T12:49:27;5.03;;;3.70;;
4309;SDS011;2168;53.576;9.980;2023-03-31T12:59:34;5.33;;;3.60;;
4309;SDS011;2168;53.576;9.980;2023-03-31T13:04:34;5.07;;;3.47;;
4309;SDS011;2168;53.576;9.980;2023-03-31T13:07:01;10.07;;;3.17;;
4309;SDS011;2168;53.576;9.980;2023-03-31T13:11:55;7.27;;;3.20;;
4309;SDS011;2168;53.576;9.980;2023-03-31T13:16:51;4.47;;;2.90;;
4309;SDS011;2168;53.576;9.980;2023-03-31T13:19:26;5.67;;;3.20;;
4309;SDS011;2168;53.576;9.980;2023-03-31T13:21:52;6.60;;;3.50;;
4309;SDS011;2168;53.576;9.980;2023-03-31T13:24:20;7.50;;;3.80;;
4309;SDS011;2168;53.576;9.980;2023-03-31T13:26:45;6.93;;;3.50;;
4309;SDS011;2168;53.576;9.980;2023-03-31T13:34:23;4.53;;;3.33;;
4309;SDS011;2168;53.576;9.980;2023-03-31T13:36:55;4.30;;;3.90;;
4309;SDS011;2168;53.576;9.980;2023-03-31T13:49:49;9.23;;;4.37;;
4309;SDS011;2168;53.576;9.980;2023-03-31T13:52:19;8.53;;;3.40;;
4309;SDS011;2168;53.576;9.980;2023-03-31T13:55:00;8.33;;;3.63;;
4309;SDS011;2168;53.576;9.980;2023-03-31T13:57:34;3.70;;;2.87;;
4309;SDS011;2168;53.576;9.980;2023-03-31T14:02:47;4.83;;;3.60;;
4309;SDS011;2168;53.576;9.980;2023-03-31T14:07:49;4.30;;;2.50;;
4309;SDS011;2168;53.576;9.980;2023-03-31T14:10:25;5.17;;;3.00;;
4309;SDS011;2168;53.576;9.980;2023-03-31T14:12:51;3.40;;;2.33;;
4309;SDS011;2168;53.576;9.980;2023-03-31T14:15:27;3.20;;;2.60;;
4309;SDS011;2168;53.576;9.980;2023-03-31T14:17:53;5.43;;;2.40;;
4309;SDS011;2168;53.576;9.980;2023-03-31T14:35:46;3.50;;;2.50;;
4309;SDS011;2168;53.576;9.980;2023-03-31T14:38:18;4.77;;;2.70;;
4309;SDS011;2168;53.576;9.980;2023-03-31T14:40:45;3.53;;;3.00;;
4309;SDS011;2168;53.576;9.980;2023-03-31T14:43:24;3.30;;;3.00;;
4309;SDS011;2168;53.576;9.980;2023-03-31T14:46:00;3.87;;;3.23;;
4309;SDS011;2168;53.576;9.980;2023-03-31T14:48:27;3.37;;;2.47;;
4309;SDS011;2168;53.576;9.980;2023-03-31T14:50:56;2.43;;;2.30;;
4309;SDS011;2168;53.576;9.980;2023-03-31T14:53:25;4.57;;;2.63;;
4309;SDS011;2168;53.576;9.980;2023-03-31T14:55:50;3.03;;;2.43;;
4309;SDS011;2168;53.576;9.980;2023-03-31T14:58:23;5.23;;;3.00;;
4309;SDS011;2168;53.576;9.980;2023-03-31T15:00:50;4.73;;;3.33;;
4309;SDS011;2168;53.576;9.980;2023-03-31T15:03:16;2.10;;;2.00;;
4309;SDS011;2168;53.576;9.980;2023-03-31T15:05:41;2.47;;;2.23;;
4309;SDS011;2168;53.576;9.980;2023-03-31T15:08:15;2.93;;;2.50;;
4309;SDS011;2168;53.576;9.980;2023-03-31T15:10:44;2.10;;;2.00;;
4309;SDS011;2168;53.576;9.980;2023-03-31T15:13:13;4.53;;;2.37;;
4309;SDS011;2168;53.576;9.980;2023-03-31T15:15:39;2.80;;;2.10;;
4309;SDS011;2168;53.576;9.980;2023-03-31T15:18:05;2.67;;;2.47;;
4309;SDS011;2168;53.576;9.980;2023-03-31T15:20:34;2.27;;;2.03;;
4309;SDS011;2168;53.576;9.980;2023-03-31T15:22:59;1.90;;;1.80;;
4309;SDS011;2168;53.576;9.980;2023-03-31T15:25:36;1.80;;;1.70;;
4309;SDS011;2168;53.576;9.980;2023-03-31T15:28:03;1.90;;;1.50;;
4309;SDS011;2168;53.576;9.980;2023-03-31T15:30:30;3.13;;;1.80;;
4309;SDS011;2168;53.576;9.980;2023-03-31T15:32:56;3.23;;;1.97;;
4309;SDS011;2168;53.576;9.980;2023-03-31T15:37:46;1.67;;;1.57;;
4309;SDS011;2168;53.576;9.980;2023-03-31T15:40:26;2.63;;;2.10;;
4309;SDS011;2168;53.576;9.980;2023-03-31T15:42:52;4.10;;;2.20;;
4309;SDS011;2168;53.576;9.980;2023-03-31T15:47:53;2.00;;;1.80;;
4309;SDS011;2168;53.576;9.980;2023-03-31T15:50:22;2.13;;;1.90;;
4309;SDS011;2168;53.576;9.980;2023-03-31T15:52:52;4.20;;;1.90;;
4309;SDS011;2168;53.576;9.980;2023-03-31T15:57:52;2.47;;;1.93;;
4309;SDS011;2168;53.576;9.980;2023-03-31T16:02:58;4.10;;;2.00;;
4309;SDS011;2168;53.576;9.980;2023-03-31T16:05:36;2.33;;;2.23;;
4309;SDS011;2168;53.576;9.980;2023-03-31T16:08:03;1.80;;;1.70;;
4309;SDS011;2168;53.576;9.980;2023-03-31T16:10:34;6.00;;;3.17;;
4309;SDS011;2168;53.576;9.980;2023-03-31T16:13:04;4.10;;;2.40;;
4309;SDS011;2168;53.576;9.980;2023-03-31T16:15:34;2.33;;;2.10;;
4309;SDS011;2168;53.576;9.980;2023-03-31T16:18:04;3.60;;;2.63;;
4309;SDS011;2168;53.576;9.980;2023-03-31T16:20:31;2.80;;;2.60;;
4309;SDS011;2168;53.576;9.980;2023-03-31T16:23:01;4.90;;;2.70;;
4309;SDS011;2168;53.576;9.980;2023-03-31T16:25:29;2.87;;;2.50;;
4309;SDS011;2168;53.576;9.980;2023-03-31T16:27:56;2.13;;;2.03;;
4309;SDS011;2168;53.576;9.980;2023-03-31T16:30:32;4.60;;;2.23;;
4309;SDS011;2168;53.576;9.980;2023-03-31T16:35:35;3.00;;;2.03;;
4309;SDS011;2168;53.576;9.980;2023-03-31T16:38:01;2.10;;;2.00;;
4309;SDS011;2168;53.576;9.980;2023-03-31T16:40:27;1.80;;;1.70;;
4309;SDS011;2168;53.576;9.980;2023-03-31T16:43:06;3.37;;;1.97;;
4309;SDS011;2168;53.576;9.980;2023-03-31T16:45:31;2.13;;;2.00;;
4309;SDS011;2168;53.576;9.980;2023-03-31T16:47:56;2.40;;;2.30;;
4309;SDS011;2168;53.576;9.980;2023-03-31T16:50:21;2.33;;;2.13;;
4309;SDS011;2168;53.576;9.980;2023-03-31T16:52:46;5.57;;;1.90;;
4309;SDS011;2168;53.576;9.980;2023-03-31T16:55:12;2.33;;;2.03;;
4309;SDS011;2168;53.576;9.980;2023-03-31T16:57:37;5.93;;;2.60;;
4309;SDS011;2168;53.576;9.980;2023-03-31T17:00:02;2.53;;;2.30;;
4309;SDS011;2168;53.576;9.980;2023-03-31T17:02:27;3.83;;;3.43;;
4309;SDS011;2168;53.576;9.980;2023-03-31T17:07:28;3.90;;;2.97;;
4309;SDS011;2168;53.576;9.980;2023-03-31T17:09:54;3.87;;;3.03;;
4309;SDS011;2168;53.576;9.980;2023-03-31T17:12:19;5.80;;;3.60;;
4309;SDS011;2168;53.576;9.980;2023-03-31T17:14:44;3.30;;;3.00;;
4309;SDS011;2168;53.576;9.980;2023-03-31T17:17:10;4.13;;;3.30;;
4309;SDS011;2168;53.576;9.980;2023-03-31T17:19:35;5.50;;;3.60;;
4309;SDS011;2168;53.576;9.980;2023-03-31T17:22:00;5.00;;;2.60;;
4309;SDS011;2168;53.576;9.980;2023-03-31T17:24:27;4.20;;;3.10;;
4309;SDS011;2168;53.576;9.980;2023-03-31T17:26:53;4.60;;;3.50;;
4309;SDS011;2168;53.576;9.980;2023-03-31T17:29:18;4.77;;;3.20;;
4309;SDS011;2168;53.576;9.980;2023-03-31T17:31:43;4.20;;;2.77;;
4309;SDS011;2168;53.576;9.980;2023-03-31T17:34:08;2.73;;;2.40;;
4309;SDS011;2168;53.576;9.980;2023-03-31T17:36:34;5.60;;;3.10;;
4309;SDS011;2168;53.576;9.980;2023-03-31T17:38:59;3.30;;;2.70;;
4309;SDS011;2168;53.576;9.980;2023-03-31T17:41:25;5.40;;;3.57;;
4309;SDS011;2168;53.576;9.980;2023-03-31T17:43:53;5.30;;;2.80;;
4309;SDS011;2168;53.576;9.980;2023-03-31T17:46:18;2.20;;;2.00;;
4309;SDS011;2168;53.576;9.980;2023-03-31T17:48:44;3.23;;;2.60;;
4309;SDS011;2168;53.576;9.980;2023-03-31T17:51:16;4.23;;;2.27;;
4309;SDS011;2168;53.576;9.980;2023-03-31T17:53:42;1.90;;;1.80;;
4309;SDS011;2168;53.576;9.980;2023-03-31T17:56:09;2.13;;;1.93;;
4309;SDS011;2168;53.576;9.980;2023-03-31T17:58:34;2.10;;;1.80;;
4309;SDS011;2168;53.576;9.980;2023-03-31T18:01:01;2.50;;;2.30;;